^^
Saratoga-Weather Station Historical Data
Daily Summary for October 28, 2020 Units:  Metric    English   Both
Daily Weekly Monthly Yearly Custom
  High: Low: Average:
Temperature: 14 °C 10.4 °C 12.2 °C
Dew Point: 11 °C 8.2 °C 9.6 °C
Humidity: 96% 68% 84%
Wind Speed: 19.5km/h 0km/h 3.8km/h
Wind Gust: 25.7km/h - -
Wind- - SW
Pressure: 1012.5 hPa 1006.4 hPa -
Precipitation: 6.6 mm    
Historical Graphs
 
 
Tabular Data for October 28, 2020
Time Temperature Dew Point Pressure Wind Wind Speed Wind Gust Humidity Rainfall Rate (Hourly) solar
00:00 10.4 °C 9.3 °C 1006.8 hPa ENE 1.4 km/h 4.8 km/h 93% 0.5 mm 0 W/m2
00:05 10.5 °C 9.6 °C 1006.8 hPa WNW 4.7 km/h 8 km/h 94% 0.5 mm 0 W/m2
00:10 10.5 °C 9.6 °C 1006.8 hPa NW 6.4 km/h 11.3 km/h 94% 0.5 mm 0 W/m2
00:15 10.6 °C 9.7 °C 1006.4 hPa ENE 4.7 km/h 8 km/h 94% 0.5 mm 0 W/m2
00:20 10.6 °C 9.7 °C 1006.8 hPa NNW 4.7 km/h 6.4 km/h 94% 0.5 mm 0 W/m2
00:26 10.6 °C 9.5 °C 1006.8 hPa NE 6.4 km/h 6.4 km/h 93% 0.5 mm 0 W/m2
00:31 10.7 °C 9.6 °C 1006.4 hPa Calm   16.1 km/h 93% 0.5 mm 0 W/m2
00:36 10.8 °C 9.7 °C 1006.8 hPa ENE 3.2 km/h 4.8 km/h 93% 0.5 mm 0 W/m2
00:41 10.8 °C 9.7 °C 1006.8 hPa NE 1.4 km/h 16.1 km/h 93% 0.5 mm 0 W/m2
00:46 10.8 °C 9.7 °C 1006.4 hPa NE 1.4 km/h 8 km/h 93% 0.5 mm 0 W/m2
00:51 10.8 °C 9.9 °C 1006.4 hPa ENE 3.2 km/h 9.7 km/h 94% 0.2 mm 0 W/m2
00:56 10.9 °C 10 °C 1006.8 hPa South 1.4 km/h 4.8 km/h 94% 0.0 mm 0 W/m2
01:01 10.9 °C 10 °C 1006.8 hPa West 6.4 km/h 9.7 km/h 94% 0.0 mm 0 W/m2
01:06 10.9 °C 10 °C 1006.8 hPa NW 3.2 km/h 6.4 km/h 94% 0.0 mm 0 W/m2
01:11 11 °C 10.1 °C 1006.4 hPa NNE 3.2 km/h 8 km/h 94% 0.0 mm 0 W/m2
01:16 11.1 °C 10.2 °C 1006.4 hPa East 4.7 km/h 6.4 km/h 94% 0.0 mm 0 W/m2
01:21 11.1 °C 10.2 °C 1006.4 hPa East 11.1 km/h 16.1 km/h 94% 0.0 mm 0 W/m2
01:26 11.2 °C 10.1 °C 1006.8 hPa NE 6.4 km/h 6.4 km/h 93% 0.0 mm 0 W/m2
01:31 11.2 °C 10.3 °C 1006.8 hPa NW 7.9 km/h 8 km/h 94% 0.0 mm 0 W/m2
01:36 11.3 °C 10.4 °C 1006.8 hPa West 4.7 km/h 19.3 km/h 94% 0.0 mm 0 W/m2
01:41 11.3 °C 10.4 °C 1006.8 hPa WSW 1.4 km/h 8 km/h 94% 0.0 mm 0 W/m2
01:46 11.3 °C 10.4 °C 1006.8 hPa NW 1.4 km/h 19.3 km/h 94% 0.0 mm 0 W/m2
01:51 11.3 °C 10.4 °C 1006.8 hPa North 1.4 km/h 8 km/h 94% 0.0 mm 0 W/m2
01:56 11.3 °C 10.4 °C 1006.8 hPa NE 3.2 km/h 8 km/h 94% 0.0 mm 0 W/m2
02:01 11.3 °C 10.4 °C 1006.8 hPa NNE 1.4 km/h 8 km/h 94% 0.0 mm 0 W/m2
02:06 11.3 °C 10.4 °C 1006.8 hPa WNW 4.7 km/h 6.4 km/h 94% 0.0 mm 0 W/m2
02:11 11.3 °C 10.4 °C 1006.8 hPa East 6.4 km/h 17.7 km/h 94% 0.0 mm 0 W/m2
02:16 11.3 °C 10.4 °C 1006.8 hPa ENE 1.4 km/h 6.4 km/h 94% 0.0 mm 0 W/m2
02:21 11.3 °C 10.4 °C 1006.8 hPa WNW 6.4 km/h 6.4 km/h 94% 0.2 mm 0 W/m2
02:26 11.3 °C 10.4 °C 1006.8 hPa ENE 1.4 km/h 4.8 km/h 94% 0.2 mm 0 W/m2
02:31 11.3 °C 10.4 °C 1006.8 hPa WNW 4.7 km/h 4.8 km/h 94% 0.2 mm 0 W/m2
02:36 11.2 °C 10.3 °C 1006.8 hPa North 3.2 km/h 6.4 km/h 94% 0.5 mm 0 W/m2
02:41 11.2 °C 10.3 °C 1006.8 hPa NE 9.7 km/h 9.7 km/h 94% 0.5 mm 0 W/m2
02:46 11.2 °C 10.4 °C 1006.8 hPa ENE 4.7 km/h 4.8 km/h 95% 0.5 mm 0 W/m2
02:51 11.2 °C 10.4 °C 1006.8 hPa NE 9.7 km/h 9.7 km/h 95% 0.5 mm 0 W/m2
02:56 11.2 °C 10.4 °C 1006.8 hPa NW 3.2 km/h 6.4 km/h 95% 0.5 mm 0 W/m2
03:01 11.2 °C 10.4 °C 1006.8 hPa Calm   3.2 km/h 95% 0.8 mm 0 W/m2
03:06 11.2 °C 10.4 °C 1006.8 hPa NW 3.2 km/h 6.4 km/h 95% 0.8 mm 0 W/m2
03:11 11.2 °C 10.4 °C 1006.8 hPa NW 3.2 km/h 3.2 km/h 95% 0.8 mm 0 W/m2
03:16 11.2 °C 10.4 °C 1006.8 hPa Calm   4.8 km/h 95% 1.0 mm 0 W/m2
03:21 11.2 °C 10.4 °C 1006.8 hPa NE 4.7 km/h 12.9 km/h 95% 1.0 mm 0 W/m2
03:26 11.2 °C 10.4 °C 1006.8 hPa ENE 1.4 km/h 6.4 km/h 95% 1.3 mm 0 W/m2
03:31 11.2 °C 10.4 °C 1006.8 hPa North 6.4 km/h 12.9 km/h 95% 1.5 mm 0 W/m2
03:36 11.2 °C 10.4 °C 1006.8 hPa NE 1.4 km/h 4.8 km/h 95% 1.5 mm 0 W/m2
03:41 11.2 °C 10.4 °C 1006.8 hPa WNW 3.2 km/h 6.4 km/h 95% 1.8 mm 0 W/m2
03:46 11.2 °C 10.4 °C 1006.8 hPa North 4.7 km/h 4.8 km/h 95% 1.5 mm 0 W/m2
03:51 11.2 °C 10.4 °C 1006.8 hPa WSW 1.4 km/h 11.3 km/h 95% 1.8 mm 0 W/m2
03:56 11.2 °C 10.4 °C 1007.1 hPa West 1.4 km/h 3.2 km/h 95% 2.0 mm 0 W/m2
04:01 11.2 °C 10.4 °C 1007.1 hPa NNW 1.4 km/h 11.3 km/h 95% 2.0 mm 0 W/m2
04:06 11.1 °C 10.3 °C 1007.1 hPa West 1.4 km/h 3.2 km/h 95% 2.3 mm 0 W/m2
04:11 11.1 °C 10.3 °C 1007.1 hPa NW 3.2 km/h 4.8 km/h 95% 2.5 mm 0 W/m2
04:16 11.1 °C 10.3 °C 1007.1 hPa NNW 3.2 km/h 3.2 km/h 95% 2.5 mm 0 W/m2
04:21 11.1 °C 10.3 °C 1007.1 hPa NNW 1.4 km/h 6.4 km/h 95% 2.5 mm 0 W/m2
04:26 11.1 °C 10.3 °C 1007.1 hPa West 1.4 km/h 3.2 km/h 95% 2.5 mm 0 W/m2
04:31 11.1 °C 10.3 °C 1007.1 hPa North 1.4 km/h 3.2 km/h 95% 2.3 mm 0 W/m2
04:36 11.1 °C 10.3 °C 1007.1 hPa NW 1.4 km/h 3.2 km/h 95% 2.3 mm 0 W/m2
04:41 11.1 °C 10.3 °C 1007.5 hPa West 1.4 km/h 6.4 km/h 95% 2.3 mm 0 W/m2
04:46 11.1 °C 10.3 °C 1007.5 hPa Calm   3.2 km/h 95% 2.3 mm 0 W/m2
04:51 11.1 °C 10.3 °C 1007.5 hPa Calm   6.4 km/h 95% 2.3 mm 0 W/m2
04:56 11.1 °C 10.3 °C 1007.5 hPa Calm     95% 2.3 mm 0 W/m2
05:01 11.1 °C 10.3 °C 1007.5 hPa Calm   6.4 km/h 95% 2.0 mm 0 W/m2
05:06 11.1 °C 10.3 °C 1007.1 hPa ESE 1.4 km/h 3.2 km/h 95% 1.8 mm 0 W/m2
05:12 11 °C 10.2 °C 1007.5 hPa Calm     95% 1.5 mm 0 W/m2
05:17 11 °C 10.2 °C 1007.5 hPa ESE 3.2 km/h 3.2 km/h 95% 1.5 mm 0 W/m2
05:22 11 °C 10.2 °C 1007.5 hPa Calm     95% 1.3 mm 0 W/m2
05:27 10.9 °C 10.1 °C 1007.5 hPa Calm     95% 1.3 mm 0 W/m2
05:32 10.9 °C 10.1 °C 1007.5 hPa Calm   4.8 km/h 95% 1.0 mm 0 W/m2
05:37 10.9 °C 10.1 °C 1007.8 hPa Calm   1.6 km/h 95% 0.8 mm 0 W/m2
05:42 10.9 °C 10.1 °C 1007.5 hPa Calm   4.8 km/h 95% 0.8 mm 0 W/m2
05:47 10.9 °C 10.1 °C 1007.5 hPa Calm   1.6 km/h 95% 0.8 mm 0 W/m2
05:52 10.9 °C 10.1 °C 1007.8 hPa Calm   1.6 km/h 95% 0.8 mm 0 W/m2
05:57 10.9 °C 10.3 °C 1007.8 hPa East 3.2 km/h 3.2 km/h 96% 0.5 mm 0 W/m2
06:02 10.9 °C 10.3 °C 1007.8 hPa ENE 3.2 km/h 3.2 km/h 96% 0.8 mm 0 W/m2
06:07 10.9 °C 10.3 °C 1007.8 hPa East 3.2 km/h 6.4 km/h 96% 0.8 mm 0 W/m2
06:12 10.9 °C 10.3 °C 1008.1 hPa ESE 1.4 km/h 3.2 km/h 96% 0.8 mm 0 W/m2
06:17 11.1 °C 10.5 °C 1008.1 hPa Calm   6.4 km/h 96% 1.0 mm 0 W/m2
06:22 11.1 °C 10.5 °C 1008.1 hPa ESE 3.2 km/h 3.2 km/h 96% 1.0 mm 0 W/m2
06:27 11.2 °C 10.6 °C 1008.1 hPa Calm   9.7 km/h 96% 0.8 mm 0 W/m2
06:32 11.3 °C 10.7 °C 1008.1 hPa NNW 1.4 km/h 4.8 km/h 96% 0.8 mm 0 W/m2
06:37 11.3 °C 10.7 °C 1008.1 hPa Calm   4.8 km/h 96% 0.8 mm 0 W/m2
06:42 11.4 °C 10.8 °C 1008.1 hPa South 3.2 km/h 8 km/h 96% 0.8 mm 0 W/m2
06:47 11.5 °C 10.9 °C 1008.1 hPa Calm   6.4 km/h 96% 0.5 mm 0 W/m2
06:52 11.6 °C 11 °C 1008.1 hPa Calm   3.2 km/h 96% 0.5 mm 0 W/m2
06:57 11.6 °C 10.8 °C 1008.1 hPa WNW 1.4 km/h 4.8 km/h 95% 0.5 mm 0 W/m2
07:02 11.6 °C 10.8 °C 1008.5 hPa NW 1.4 km/h 9.7 km/h 95% 0.5 mm 0 W/m2
07:07 11.6 °C 10.8 °C 1008.5 hPa NW 1.4 km/h 4.8 km/h 95% 0.5 mm 0 W/m2
07:12 11.6 °C 10.8 °C 1008.5 hPa WSW 3.2 km/h 8 km/h 95% 0.0 mm 0 W/m2
07:17 11.7 °C 10.9 °C 1008.5 hPa West 3.2 km/h 17.7 km/h 95% 0.0 mm 0 W/m2
07:22 11.7 °C 10.9 °C 1008.8 hPa SE 3.2 km/h 8 km/h 95% 0.0 mm 0 W/m2
07:27 11.7 °C 10.8 °C 1008.8 hPa Calm   17.7 km/h 94% 0.0 mm 5 W/m2
07:32 11.7 °C 10.8 °C 1009.1 hPa NW 3.2 km/h 6.4 km/h 94% 0.0 mm 7 W/m2
07:37 11.7 °C 10.8 °C 1008.8 hPa NE 4.7 km/h 4.8 km/h 94% 0.0 mm 9 W/m2
07:42 11.7 °C 10.8 °C 1009.1 hPa Calm   1.6 km/h 94% 0.0 mm 7 W/m2
07:47 11.6 °C 10.7 °C 1009.1 hPa WNW 1.4 km/h 3.2 km/h 94% 0.0 mm 11 W/m2
07:52 11.6 °C 10.7 °C 1009.1 hPa NNW 1.4 km/h 6.4 km/h 94% 0.2 mm 26 W/m2
07:57 11.6 °C 10.7 °C 1009.1 hPa Calm   4.8 km/h 94% 0.2 mm 42 W/m2
08:02 11.7 °C 10.8 °C 1009.1 hPa WNW 1.4 km/h 4.8 km/h 94% 0.2 mm 37 W/m2
08:07 11.7 °C 10.8 °C 1009.1 hPa NW 4.7 km/h 6.4 km/h 94% 0.2 mm 47 W/m2
08:12 11.7 °C 10.8 °C 1009.1 hPa Calm   4.8 km/h 94% 0.2 mm 69 W/m2
08:17 11.8 °C 10.9 °C 1009.5 hPa Calm   4.8 km/h 94% 0.2 mm 35 W/m2
08:22 11.8 °C 10.9 °C 1009.5 hPa NNE 3.2 km/h 3.2 km/h 94% 0.2 mm 26 W/m2
08:27 11.8 °C 10.9 °C 1009.8 hPa Calm   4.8 km/h 94% 0.2 mm 28 W/m2
08:32 11.8 °C 10.9 °C 1009.8 hPa Calm   3.2 km/h 94% 0.2 mm 35 W/m2
08:38 11.7 °C 10.8 °C 1009.8 hPa North 9.7 km/h 9.7 km/h 94% 0.2 mm 56 W/m2
08:43 11.7 °C 10.8 °C 1009.8 hPa NNW 6.4 km/h 9.7 km/h 94% 0.2 mm 39 W/m2
08:48 11.8 °C 10.7 °C 1009.8 hPa SW 1.4 km/h 3.2 km/h 93% 0.2 mm 40 W/m2
08:53 11.8 °C 10.7 °C 1010.2 hPa NNW 3.2 km/h 9.7 km/h 93% 0.2 mm 65 W/m2
08:58 11.8 °C 10.7 °C 1010.2 hPa WNW 3.2 km/h 12.9 km/h 93% 0.2 mm 47 W/m2
09:03 11.9 °C 10.8 °C 1010.2 hPa West 1.4 km/h 6.4 km/h 93% 0.2 mm 44 W/m2
09:08 11.9 °C 10.8 °C 1010.5 hPa NW 1.4 km/h 4.8 km/h 93% 0.2 mm 14 W/m2
09:13 11.8 °C 10.7 °C 1010.5 hPa WNW 4.7 km/h 11.3 km/h 93% 0.2 mm 23 W/m2
09:18 11.8 °C 10.7 °C 1010.5 hPa WNW 1.4 km/h 6.4 km/h 93% 0.2 mm 33 W/m2
09:23 11.7 °C 10.6 °C 1010.8 hPa NW 6.4 km/h 11.3 km/h 93% 0.2 mm 35 W/m2
09:28 11.7 °C 10.6 °C 1010.8 hPa NW 4.7 km/h 11.3 km/h 93% 0.5 mm 76 W/m2
09:33 11.7 °C 10.4 °C 1010.8 hPa West 11.1 km/h 12.9 km/h 92% 0.5 mm 77 W/m2
09:38 11.7 °C 10.4 °C 1010.8 hPa WNW 3.2 km/h 12.9 km/h 92% 0.5 mm 97 W/m2
09:43 11.8 °C 10.5 °C 1010.8 hPa NW 3.2 km/h 6.4 km/h 92% 0.5 mm 167 W/m2
09:48 11.9 °C 10.6 °C 1010.8 hPa WSW 4.7 km/h 17.7 km/h 92% 0.5 mm 120 W/m2
09:53 12.2 °C 10.9 °C 1010.8 hPa North 6.4 km/h 6.4 km/h 92% 0.2 mm 144 W/m2
09:58 12.3 °C 11 °C 1011.2 hPa Calm   17.7 km/h 92% 0.2 mm 160 W/m2
10:03 12.4 °C 11 °C 1011.2 hPa WNW 11.1 km/h 22.5 km/h 91% 0.2 mm 188 W/m2
10:08 12.4 °C 10.8 °C 1011.2 hPa West 16.3 km/h 20.9 km/h 90% 0.2 mm 113 W/m2
10:13 12.5 °C 10.7 °C 1011.2 hPa SSW 6.4 km/h 22.5 km/h 89% 0.2 mm 109 W/m2
10:18 12.5 °C 10.6 °C 1011.5 hPa WNW 4.7 km/h 17.7 km/h 88% 0.2 mm 137 W/m2
10:23 12.5 °C 10.2 °C 1011.5 hPa WSW 3.2 km/h 11.3 km/h 86% 0.2 mm 76 W/m2
10:28 12.4 °C 9.9 °C 1011.5 hPa West 19.5 km/h 25.7 km/h 85% 0.0 mm 46 W/m2
10:33 12.4 °C 9.8 °C 1011.5 hPa NE 3.2 km/h 8 km/h 84% 0.0 mm 40 W/m2
10:38 12.3 °C 9.7 °C 1011.5 hPa NW 16.3 km/h 25.7 km/h 84% 0.0 mm 42 W/m2
10:43 12.3 °C 9.7 °C 1011.9 hPa WNW 17.7 km/h 17.7 km/h 84% 0.0 mm 47 W/m2
10:48 12.3 °C 9.9 °C 1011.5 hPa NW 3.2 km/h 16.1 km/h 85% 0.0 mm 84 W/m2
10:53 12.4 °C 9.8 °C 1011.5 hPa WSW 4.7 km/h 14.5 km/h 84% 0.0 mm 127 W/m2
10:59 12.5 °C 9.5 °C 1011.9 hPa WNW 6.4 km/h 20.9 km/h 82% 0.0 mm 42 W/m2
11:04 12.6 °C 9.6 °C 1011.9 hPa NW 17.7 km/h 20.9 km/h 82% 0.0 mm 42 W/m2
11:09 12.4 °C 9.2 °C 1011.9 hPa WNW 9.7 km/h 16.1 km/h 81% 0.0 mm 72 W/m2
11:14 12.5 °C 9.3 °C 1011.9 hPa NNW 4.7 km/h 12.9 km/h 81% 0.0 mm 95 W/m2
11:19 12.6 °C 9.4 °C 1011.9 hPa NW 1.4 km/h 19.3 km/h 81% 0.0 mm 62 W/m2
11:24 12.6 °C 9.2 °C 1012.2 hPa WNW 4.7 km/h 16.1 km/h 80% 0.0 mm 77 W/m2
11:29 12.6 °C 9.1 °C 1011.9 hPa NW 4.7 km/h 19.3 km/h 79% 0.0 mm 88 W/m2
11:34 12.7 °C 9.2 °C 1012.2 hPa WSW 3.2 km/h 20.9 km/h 79% 0.0 mm 158 W/m2
11:39 12.7 °C 9 °C 1012.2 hPa WSW 4.7 km/h 12.9 km/h 78% 0.0 mm 76 W/m2
11:44 12.6 °C 9.1 °C 1012.2 hPa WSW 4.7 km/h 20.9 km/h 79% 0.0 mm 392 W/m2
11:49 12.7 °C 9.3 °C 1012.2 hPa NNW 3.2 km/h 6.4 km/h 80% 0.0 mm 408 W/m2
11:54 12.8 °C 9.2 °C 1012.2 hPa NW 3.2 km/h 12.9 km/h 79% 0.0 mm 132 W/m2
11:59 12.7 °C 8.8 °C 1012.2 hPa West 9.7 km/h 20.9 km/h 77% 0.0 mm 100 W/m2
12:04 12.6 °C 8.9 °C 1012.2 hPa NW 6.4 km/h 9.7 km/h 78% 0.0 mm 146 W/m2
12:09 12.6 °C 8.9 °C 1012.2 hPa NW 4.7 km/h 11.3 km/h 78% 0.0 mm 158 W/m2
12:14 12.6 °C 8.9 °C 1012.5 hPa South 7.9 km/h 12.9 km/h 78% 0.0 mm 246 W/m2
12:19 12.8 °C 9.1 °C 1012.2 hPa NNW 4.7 km/h 12.9 km/h 78% 0.0 mm 151 W/m2
12:24 12.9 °C 8.8 °C 1012.2 hPa West 1.4 km/h 14.5 km/h 76% 0.0 mm 172 W/m2
12:29 13.1 °C 9.2 °C 1012.2 hPa WSW 3.2 km/h 4.8 km/h 77% 0.0 mm 123 W/m2
12:34 13 °C 8.9 °C 1012.2 hPa West 4.7 km/h 16.1 km/h 76% 0.0 mm 128 W/m2
12:39 12.9 °C 8.8 °C 1012.2 hPa West 1.4 km/h 12.9 km/h 76% 0.0 mm 192 W/m2
12:44 12.9 °C 8.6 °C 1012.2 hPa SW 3.2 km/h 6.4 km/h 75% 0.0 mm 193 W/m2
12:49 13 °C 8.7 °C 1012.2 hPa WSW 6.4 km/h 8 km/h 75% 0.0 mm 125 W/m2
12:54 13.1 °C 8.8 °C 1012.2 hPa NW 4.7 km/h 9.7 km/h 75% 0.0 mm 246 W/m2
12:59 13.2 °C 8.9 °C 1012.2 hPa North 3.2 km/h 8 km/h 75% 0.0 mm 181 W/m2
13:04 13.3 °C 8.8 °C 1011.9 hPa NW 13 km/h 14.5 km/h 74% 0.0 mm 197 W/m2
13:09 13.2 °C 8.7 °C 1011.9 hPa WNW 3.2 km/h 12.9 km/h 74% 0.0 mm 174 W/m2
13:14 13.3 °C 8.8 °C 1011.9 hPa North 4.7 km/h 6.4 km/h 74% 0.0 mm 202 W/m2
13:19 13.4 °C 8.9 °C 1011.9 hPa WNW 4.7 km/h 12.9 km/h 74% 0.0 mm 188 W/m2
13:24 13.5 °C 9 °C 1011.9 hPa WNW 4.7 km/h 8 km/h 74% 0.0 mm 220 W/m2
13:29 13.7 °C 8.7 °C 1011.9 hPa NW 6.4 km/h 25.7 km/h 72% 0.0 mm 195 W/m2
13:34 13.7 °C 8.7 °C 1011.9 hPa NE 3.2 km/h 9.7 km/h 72% 0.0 mm 151 W/m2
13:39 13.8 °C 8.6 °C 1011.9 hPa South 3.2 km/h 19.3 km/h 71% 0.0 mm 193 W/m2
13:44 13.9 °C 8.5 °C 1011.9 hPa WSW 3.2 km/h 8 km/h 70% 0.0 mm 132 W/m2
13:49 13.9 °C 8.3 °C 1011.9 hPa NW 6.4 km/h 9.7 km/h 69% 0.0 mm 146 W/m2
13:54 13.9 °C 8.3 °C 1012.2 hPa WNW 3.2 km/h 14.5 km/h 69% 0.0 mm 232 W/m2
13:59 14 °C 8.4 °C 1012.2 hPa West 1.4 km/h 11.3 km/h 69% 0.0 mm 199 W/m2
14:04 14 °C 8.2 °C 1011.9 hPa WSW 1.4 km/h 12.9 km/h 68% 0.0 mm 149 W/m2
14:09 13.9 °C 8.3 °C 1012.2 hPa WNW 4.7 km/h 6.4 km/h 69% 0.0 mm 100 W/m2
14:14 13.9 °C 8.3 °C 1012.2 hPa NNW 3.2 km/h 12.9 km/h 69% 0.0 mm 93 W/m2
14:19 13.8 °C 8.4 °C 1012.2 hPa ENE 1.4 km/h 9.7 km/h 70% 0.0 mm 77 W/m2
14:24 13.8 °C 8.4 °C 1012.2 hPa NNW 3.2 km/h 12.9 km/h 70% 0.0 mm 111 W/m2
14:29 13.7 °C 8.3 °C 1012.2 hPa South 1.4 km/h 12.9 km/h 70% 0.0 mm 172 W/m2
14:34 13.7 °C 8.5 °C 1012.2 hPa Calm   4.8 km/h 71% 0.0 mm 121 W/m2
14:39 13.7 °C 8.3 °C 1011.9 hPa SW 1.4 km/h 16.1 km/h 70% 0.0 mm 86 W/m2
14:44 13.7 °C 8.5 °C 1011.9 hPa WNW 4.7 km/h 8 km/h 71% 0.0 mm 98 W/m2
14:49 13.7 °C 8.5 °C 1011.9 hPa NW 7.9 km/h 22.5 km/h 71% 0.0 mm 172 W/m2
14:54 13.7 °C 8.3 °C 1011.9 hPa NNW 4.7 km/h 12.9 km/h 70% 0.0 mm 171 W/m2
14:59 13.8 °C 8.4 °C 1011.9 hPa NW 7.9 km/h 22.5 km/h 70% 0.0 mm 153 W/m2
15:04 13.8 °C 8.4 °C 1011.9 hPa West 1.4 km/h 4.8 km/h 70% 0.0 mm 97 W/m2
15:09 13.7 °C 8.3 °C 1011.9 hPa North 3.2 km/h 8 km/h 70% 0.0 mm 102 W/m2
15:14 13.7 °C 8.3 °C 1011.9 hPa WNW 4.7 km/h 14.5 km/h 70% 0.0 mm 98 W/m2
15:19 13.7 °C 8.3 °C 1011.9 hPa WNW 4.7 km/h 9.7 km/h 70% 0.0 mm 77 W/m2
15:24 13.7 °C 8.5 °C 1012.2 hPa WNW 7.9 km/h 8 km/h 71% 0.0 mm 105 W/m2
15:29 13.6 °C 8.4 °C 1011.9 hPa NW 9.7 km/h 12.9 km/h 71% 0.0 mm 88 W/m2
15:34 13.6 °C 8.2 °C 1011.9 hPa NNW 1.4 km/h 17.7 km/h 70% 0.0 mm 69 W/m2
15:39 13.5 °C 8.3 °C 1011.9 hPa ENE 3.2 km/h 4.8 km/h 71% 0.0 mm 60 W/m2
15:44 13.4 °C 8.2 °C 1011.9 hPa NNE 1.4 km/h 17.7 km/h 71% 0.0 mm 58 W/m2
15:49 13.4 °C 8.2 °C 1011.9 hPa WSW 4.7 km/h 16.1 km/h 71% 0.0 mm 58 W/m2
15:54 13.3 °C 8.4 °C 1011.9 hPa West 1.4 km/h 3.2 km/h 72% 0.0 mm 47 W/m2
15:59 13.2 °C 8.3 °C 1011.9 hPa Calm   9.7 km/h 72% 0.0 mm 40 W/m2
16:04 13.1 °C 8.2 °C 1011.9 hPa ESE 4.7 km/h 4.8 km/h 72% 0.0 mm 40 W/m2
16:10 13.1 °C 8.4 °C 1012.2 hPa NE 6.4 km/h 6.4 km/h 73% 0.0 mm 44 W/m2
16:15 13 °C 8.3 °C 1012.2 hPa ENE 1.4 km/h 3.2 km/h 73% 0.0 mm 40 W/m2
16:20 12.9 °C 8.2 °C 1012.2 hPa ENE 4.7 km/h 8 km/h 73% 0.0 mm 37 W/m2
16:25 12.9 °C 8.4 °C 1011.9 hPa NNW 4.7 km/h 6.4 km/h 74% 0.0 mm 35 W/m2
16:30 12.8 °C 8.3 °C 1011.9 hPa West 4.7 km/h 4.8 km/h 74% 0.0 mm 25 W/m2
16:35 12.8 °C 8.3 °C 1011.9 hPa Calm   9.7 km/h 74% 0.0 mm 21 W/m2
16:40 12.8 °C 8.3 °C 1011.9 hPa ENE 1.4 km/h 8 km/h 74% 0.0 mm 32 W/m2
16:45 12.8 °C 8.3 °C 1011.9 hPa NW 6.4 km/h 11.3 km/h 74% 0.0 mm 30 W/m2
16:50 12.8 °C 8.3 °C 1011.9 hPa Calm   3.2 km/h 74% 0.0 mm 16 W/m2
16:55 12.8 °C 8.3 °C 1011.9 hPa East 3.2 km/h 12.9 km/h 74% 0.0 mm 9 W/m2
17:00 12.8 °C 8.5 °C 1011.9 hPa ENE 1.4 km/h 1.6 km/h 75% 0.0 mm 11 W/m2
17:05 12.8 °C 8.5 °C 1011.9 hPa NW 1.4 km/h 12.9 km/h 75% 0.0 mm 11 W/m2
17:10 12.7 °C 8.4 °C 1011.9 hPa Calm   12.9 km/h 75% 0.0 mm 0 W/m2
17:15 12.8 °C 8.3 °C 1011.9 hPa NW 1.4 km/h 4.8 km/h 74% 0.0 mm 0 W/m2
17:20 12.8 °C 8.5 °C 1011.9 hPa Calm   12.9 km/h 75% 0.0 mm 0 W/m2
17:25 12.8 °C 8.5 °C 1011.9 hPa SSW 1.4 km/h 6.4 km/h 75% 0.0 mm 0 W/m2
17:30 12.7 °C 8.4 °C 1011.5 hPa SW 1.4 km/h 8 km/h 75% 0.0 mm 0 W/m2
17:35 12.7 °C 8.4 °C 1011.5 hPa NNE 3.2 km/h 6.4 km/h 75% 0.0 mm 0 W/m2
17:40 12.7 °C 8.4 °C 1011.5 hPa ENE 3.2 km/h 3.2 km/h 75% 0.0 mm 0 W/m2
17:45 12.7 °C 8.4 °C 1011.5 hPa NW 7.9 km/h 8 km/h 75% 0.0 mm 0 W/m2
17:50 12.8 °C 8.5 °C 1011.5 hPa NW 4.7 km/h 4.8 km/h 75% 0.0 mm 0 W/m2
17:55 12.8 °C 8.5 °C 1011.5 hPa ESE 3.2 km/h 3.2 km/h 75% 0.0 mm 0 W/m2
18:00 12.7 °C 8.4 °C 1011.5 hPa SE 3.2 km/h 8 km/h 75% 0.0 mm 0 W/m2
18:05 12.7 °C 8.6 °C 1011.5 hPa ENE 3.2 km/h 4.8 km/h 76% 0.0 mm 0 W/m2
18:10 12.6 °C 8.7 °C 1011.5 hPa NW 3.2 km/h 3.2 km/h 77% 0.0 mm 0 W/m2
18:15 12.6 °C 8.7 °C 1011.5 hPa SSW 1.4 km/h 9.7 km/h 77% 0.0 mm 0 W/m2
18:20 12.6 °C 8.7 °C 1011.5 hPa WNW 1.4 km/h 6.4 km/h 77% 0.0 mm 0 W/m2
18:25 12.7 °C 8.8 °C 1011.5 hPa WNW 6.4 km/h 9.7 km/h 77% 0.0 mm 0 W/m2
18:30 12.7 °C 8.8 °C 1011.5 hPa WSW 1.4 km/h 14.5 km/h 77% 0.0 mm 0 W/m2
18:35 12.7 °C 8.8 °C 1011.5 hPa NNW 4.7 km/h 8 km/h 77% 0.0 mm 0 W/m2
18:40 12.7 °C 8.8 °C 1011.5 hPa Calm   14.5 km/h 77% 0.0 mm 0 W/m2
18:45 12.7 °C 8.8 °C 1011.5 hPa SW 4.7 km/h 6.4 km/h 77% 0.0 mm 0 W/m2
18:50 12.7 °C 8.8 °C 1011.5 hPa SE 1.4 km/h 6.4 km/h 77% 0.0 mm 0 W/m2
18:55 12.7 °C 8.8 °C 1011.5 hPa NW 1.4 km/h 4.8 km/h 77% 0.0 mm 0 W/m2
19:00 12.7 °C 8.8 °C 1011.5 hPa West 1.4 km/h 4.8 km/h 77% 0.0 mm 0 W/m2
19:05 12.7 °C 8.8 °C 1011.5 hPa ESE 4.7 km/h 11.3 km/h 77% 0.0 mm 0 W/m2
19:10 12.7 °C 9 °C 1011.5 hPa Calm   6.4 km/h 78% 0.0 mm 0 W/m2
19:15 12.6 °C 8.9 °C 1011.5 hPa West 6.4 km/h 6.4 km/h 78% 0.0 mm 0 W/m2
19:20 12.6 °C 8.9 °C 1011.5 hPa NNE 1.4 km/h 6.4 km/h 78% 0.0 mm 0 W/m2
19:25 12.6 °C 8.9 °C 1011.5 hPa NW 3.2 km/h 6.4 km/h 78% 0.0 mm 0 W/m2
19:30 12.6 °C 8.9 °C 1011.5 hPa WNW 3.2 km/h 8 km/h 78% 0.0 mm 0 W/m2
19:35 12.7 °C 9 °C 1011.5 hPa NNW 6.4 km/h 6.4 km/h 78% 0.0 mm 0 W/m2
19:40 12.7 °C 8.8 °C 1011.5 hPa East 13 km/h 12.9 km/h 77% 0.0 mm 0 W/m2
19:45 12.7 °C 9 °C 1011.5 hPa North 1.4 km/h 11.3 km/h 78% 0.0 mm 0 W/m2
19:50 12.7 °C 9 °C 1011.5 hPa Calm   12.9 km/h 78% 0.0 mm 0 W/m2
19:55 12.7 °C 9 °C 1011.5 hPa WNW 7.9 km/h 9.7 km/h 78% 0.0 mm 0 W/m2
20:00 12.7 °C 9 °C 1011.5 hPa NW 4.7 km/h 8 km/h 78% 0.0 mm 0 W/m2
20:05 12.6 °C 8.9 °C 1011.2 hPa NW 3.2 km/h 8 km/h 78% 0.0 mm 0 W/m2
20:10 12.6 °C 9.1 °C 1011.2 hPa NE 3.2 km/h 9.7 km/h 79% 0.0 mm 0 W/m2
20:15 12.6 °C 9.1 °C 1011.2 hPa WNW 4.7 km/h 12.9 km/h 79% 0.0 mm 0 W/m2
20:20 12.6 °C 9.1 °C 1011.2 hPa NNW 1.4 km/h 3.2 km/h 79% 0.0 mm 0 W/m2
20:25 12.6 °C 9.1 °C 1011.2 hPa North 3.2 km/h 12.9 km/h 79% 0.0 mm 0 W/m2
20:30 12.5 °C 9 °C 1011.2 hPa North 1.4 km/h 8 km/h 79% 0.0 mm 0 W/m2
20:35 12.5 °C 9 °C 1010.8 hPa NNW 1.4 km/h 12.9 km/h 79% 0.0 mm 0 W/m2
20:40 12.5 °C 9 °C 1010.8 hPa ENE 7.9 km/h 11.3 km/h 79% 0.0 mm 0 W/m2
20:45 12.5 °C 9 °C 1010.8 hPa ENE 6.4 km/h 16.1 km/h 79% 0.0 mm 0 W/m2
20:50 12.5 °C 9 °C 1010.8 hPa NW 4.7 km/h 8 km/h 79% 0.0 mm 0 W/m2
20:55 12.5 °C 9 °C 1011.2 hPa North 3.2 km/h 16.1 km/h 79% 0.0 mm 0 W/m2
21:00 12.6 °C 9.1 °C 1011.2 hPa North 3.2 km/h 14.5 km/h 79% 0.0 mm 0 W/m2
21:05 12.6 °C 9.1 °C 1011.2 hPa NW 7.9 km/h 16.1 km/h 79% 0.0 mm 0 W/m2
21:10 12.6 °C 9.1 °C 1011.2 hPa WNW 6.4 km/h 12.9 km/h 79% 0.0 mm 0 W/m2
21:15 12.6 °C 9.1 °C 1011.5 hPa Calm   6.4 km/h 79% 0.0 mm 0 W/m2
21:20 12.6 °C 9.2 °C 1011.5 hPa WSW 13 km/h 16.1 km/h 80% 0.0 mm 0 W/m2
21:25 12.6 °C 9.2 °C 1011.5 hPa NW 1.4 km/h 16.1 km/h 80% 0.0 mm 0 W/m2
21:30 12.6 °C 9.2 °C 1011.2 hPa West 3.2 km/h 12.9 km/h 80% 0.0 mm 0 W/m2
21:35 12.6 °C 9.2 °C 1011.2 hPa SSW 1.4 km/h 12.9 km/h 80% 0.0 mm 0 W/m2
21:40 12.6 °C 9.2 °C 1011.5 hPa WSW 3.2 km/h 8 km/h 80% 0.0 mm 0 W/m2
21:45 12.6 °C 9.2 °C 1011.2 hPa NNW 7.9 km/h 12.9 km/h 80% 0.0 mm 0 W/m2
21:50 12.7 °C 9.3 °C 1011.5 hPa WNW 3.2 km/h 17.7 km/h 80% 0.0 mm 0 W/m2
21:55 12.7 °C 9.3 °C 1011.5 hPa West 9.7 km/h 17.7 km/h 80% 0.0 mm 0 W/m2
22:00 12.7 °C 9.3 °C 1011.2 hPa NW 3.2 km/h 11.3 km/h 80% 0.0 mm 0 W/m2
22:05 12.7 °C 9.5 °C 1011.5 hPa WSW 1.4 km/h 14.5 km/h 81% 0.0 mm 0 W/m2
22:10 12.7 °C 9.5 °C 1011.2 hPa SSE 4.7 km/h 14.5 km/h 81% 0.0 mm 0 W/m2
22:15 12.7 °C 9.5 °C 1011.5 hPa East 7.9 km/h 14.5 km/h 81% 0.0 mm 0 W/m2
22:20 12.7 °C 9.5 °C 1011.5 hPa NNW 6.4 km/h 9.7 km/h 81% 0.0 mm 0 W/m2
22:25 12.7 °C 9.5 °C 1011.5 hPa NE 4.7 km/h 12.9 km/h 81% 0.0 mm 0 W/m2
22:30 12.7 °C 9.5 °C 1011.5 hPa SE 3.2 km/h 12.9 km/h 81% 0.0 mm 0 W/m2
22:35 12.7 °C 9.5 °C 1011.5 hPa WNW 3.2 km/h 14.5 km/h 81% 0.0 mm 0 W/m2
22:40 12.7 °C 9.5 °C 1011.5 hPa NNW 6.4 km/h 11.3 km/h 81% 0.0 mm 0 W/m2
22:45 12.6 °C 9.4 °C 1011.5 hPa NNE 4.7 km/h 14.5 km/h 81% 0.0 mm 0 W/m2
22:50 12.6 °C 9.6 °C 1011.2 hPa NW 4.7 km/h 17.7 km/h 82% 0.0 mm 0 W/m2
22:55 12.6 °C 9.6 °C 1011.2 hPa WNW 6.4 km/h 16.1 km/h 82% 0.0 mm 0 W/m2
23:01 12.5 °C 9.5 °C 1011.2 hPa WNW 3.2 km/h 12.9 km/h 82% 0.0 mm 0 W/m2
23:06 12.5 °C 9.5 °C 1011.5 hPa NNW 1.4 km/h 12.9 km/h 82% 0.0 mm 0 W/m2
23:11 12.5 °C 9.5 °C 1011.5 hPa WNW 6.4 km/h 8 km/h 82% 0.0 mm 0 W/m2
23:16 12.5 °C 9.5 °C 1011.5 hPa WSW 9.7 km/h 11.3 km/h 82% 0.0 mm 0 W/m2
23:21 12.6 °C 9.6 °C 1011.9 hPa NW 14.3 km/h 14.5 km/h 82% 0.0 mm 0 W/m2
23:26 12.6 °C 9.6 °C 1011.5 hPa WNW 6.4 km/h 9.7 km/h 82% 0.0 mm 0 W/m2
23:31 12.5 °C 9.5 °C 1011.5 hPa WSW 1.4 km/h 12.9 km/h 82% 0.0 mm 0 W/m2
23:36 12.4 °C 9.8 °C 1011.9 hPa South 3.2 km/h 14.5 km/h 84% 0.0 mm 0 W/m2
23:41 12.3 °C 9.9 °C 1011.9 hPa SSE 1.4 km/h 6.4 km/h 85% 0.0 mm 0 W/m2
23:46 12.1 °C 9.8 °C 1011.9 hPa NW 9.7 km/h 14.5 km/h 86% 0.0 mm 0 W/m2
23:51 12 °C 9.7 °C 1011.9 hPa WNW 3.2 km/h 11.3 km/h 86% 0.0 mm 0 W/m2
23:56 11.9 °C 9.8 °C 1011.9 hPa NW 9.7 km/h 14.5 km/h 87% 0.0 mm 0 W/m2
Juneau County Weather
Compliments of Weather Underground - 4 mb